Time;durP1;ratioP1;P1;durP2;ratioP2;P2;SDS_P1;SDS_P2;PMS_P1;PMS_P2;Temp;Humidity;BMP_temperature;BMP_pressure;BME280_temperature;BME280_humidity;BME280_pressure;Samples;Min_cycle;Max_cycle;Signal;HPM_P1;HPM_P2
2023/02/04 00:00:44;;;;;;;6.75;2.40;;;4.20;99.90;;;;;;2091306;28;20032;-73
2023/02/04 00:01:45;;;;;;;8.30;2.47;;;4.10;99.90;;;;;;2098836;28;20948;-73
2023/02/04 00:02:46;;;;;;;7.47;2.55;;;4.00;99.90;;;;;;2099397;28;20065;-73
2023/02/04 00:03:46;;;;;;;7.95;2.65;;;4.00;99.90;;;;;;2099299;28;20595;-72
2023/02/04 00:04:47;;;;;;;7.82;2.67;;;3.90;99.90;;;;;;2099400;28;20036;-73
2023/02/04 00:05:47;;;;;;;6.63;2.75;;;3.80;99.90;;;;;;2106242;27;20040;-72
2023/02/04 00:06:48;;;;;;;4.78;2.47;;;3.80;99.90;;;;;;2084552;28;20043;-73
2023/02/04 00:07:48;;;;;;;7.65;2.90;;;3.80;99.90;;;;;;2087003;28;20032;-73
2023/02/04 00:08:49;;;;;;;7.40;2.95;;;3.70;99.90;;;;;;2103376;28;20019;-72
2023/02/04 00:09:49;;;;;;;5.68;3.10;;;3.70;99.90;;;;;;2091007;28;20139;-72
2023/02/04 00:10:50;;;;;;;7.47;3.13;;;3.70;99.90;;;;;;2090838;28;20177;-72
2023/02/04 00:11:50;;;;;;;5.45;2.90;;;3.60;99.90;;;;;;2090878;28;20032;-71
2023/02/04 00:12:51;;;;;;;6.05;3.00;;;3.60;99.90;;;;;;2084029;28;20033;-73
2023/02/04 00:13:52;;;;;;;9.32;3.15;;;3.60;99.90;;;;;;2094505;28;20210;-73
2023/02/04 00:14:52;;;;;;;11.40;3.33;;;3.60;99.90;;;;;;2106505;28;20097;-72
2023/02/04 00:15:53;;;;;;;9.18;3.50;;;3.60;99.90;;;;;;2099927;28;20066;-72
2023/02/04 00:16:53;;;;;;;12.63;3.55;;;3.60;99.90;;;;;;2100082;28;20038;-73
2023/02/04 00:17:54;;;;;;;12.30;3.60;;;3.60;99.90;;;;;;2106862;28;20023;-73
2023/02/04 00:18:54;;;;;;;10.13;4.28;;;3.60;99.90;;;;;;2103325;28;20106;-73
2023/02/04 00:19:55;;;;;;;9.68;4.22;;;3.60;99.90;;;;;;2101462;28;20672;-73
2023/02/04 00:20:55;;;;;;;7.47;4.25;;;3.60;99.90;;;;;;2099941;28;20479;-72
2023/02/04 00:21:56;;;;;;;8.20;4.00;;;3.60;99.90;;;;;;2101598;28;20477;-73
2023/02/04 00:22:56;;;;;;;9.63;4.20;;;3.60;99.90;;;;;;2090350;28;20511;-73
2023/02/04 00:23:57;;;;;;;7.00;4.20;;;3.60;99.90;;;;;;2085877;28;20029;-73
2023/02/04 00:24:58;;;;;;;8.98;4.40;;;3.60;99.90;;;;;;2101461;28;20502;-72
2023/02/04 00:25:58;;;;;;;9.10;4.00;;;3.60;99.90;;;;;;2092988;28;20028;-72
2023/02/04 00:26:59;;;;;;;10.25;4.38;;;3.50;99.90;;;;;;2091022;28;20054;-72
2023/02/04 00:27:59;;;;;;;9.88;4.80;;;3.50;99.90;;;;;;2092069;28;20024;-73
2023/02/04 00:29:00;;;;;;;9.23;4.78;;;3.50;99.90;;;;;;2096466;28;20056;-72
2023/02/04 00:30:00;;;;;;;10.07;4.95;;;3.50;99.90;;;;;;2095409;28;20054;-72
2023/02/04 00:31:01;;;;;;;9.88;4.82;;;3.40;99.90;;;;;;2090671;28;20036;-73
2023/02/04 00:32:01;;;;;;;7.07;4.32;;;3.40;99.90;;;;;;2095932;28;20515;-73
2023/02/04 00:33:02;;;;;;;10.52;3.88;;;3.30;99.90;;;;;;2097236;28;20461;-73
2023/02/04 00:34:03;;;;;;;8.02;4.35;;;3.20;99.90;;;;;;2094747;28;20040;-72
2023/02/04 00:35:04;;;;;;;6.07;4.05;;;3.10;99.90;;;;;;2094523;28;20397;-73
2023/02/04 00:36:05;;;;;;;7.30;3.67;;;3.10;99.90;;;;;;2083770;28;20032;-72
2023/02/04 00:37:06;;;;;;;5.70;3.40;;;2.90;99.90;;;;;;2092943;28;20105;-71
2023/02/04 00:38:06;;;;;;;4.20;3.28;;;2.80;99.90;;;;;;2093684;28;20033;-72
2023/02/04 00:39:07;;;;;;;6.18;3.50;;;2.70;99.90;;;;;;2092480;28;20552;-73
2023/02/04 00:40:08;;;;;;;4.85;3.40;;;2.60;99.90;;;;;;2099946;28;20111;-72
2023/02/04 00:41:09;;;;;;;5.85;3.70;;;2.60;99.90;;;;;;2090680;28;20465;-72
2023/02/04 00:42:09;;;;;;;7.78;3.90;;;2.60;99.90;;;;;;2082903;28;20038;-71
2023/02/04 00:43:10;;;;;;;4.75;3.67;;;2.50;99.90;;;;;;2092979;28;20256;-74
2023/02/04 00:44:12;;;;;;;6.53;4.10;;;2.50;99.90;;;;;;2103838;28;20364;-72
2023/02/04 00:45:13;;;;;;;4.75;3.60;;;2.40;99.90;;;;;;2092942;28;20494;-72
2023/02/04 00:46:14;;;;;;;6.55;4.05;;;2.40;99.90;;;;;;2090573;28;20203;-72
2023/02/04 00:47:14;;;;;;;4.90;3.92;;;2.40;99.90;;;;;;2090841;28;20502;-72
2023/02/04 00:48:15;;;;;;;5.68;4.20;;;2.40;99.90;;;;;;2084148;28;20304;-72
2023/02/04 00:49:15;;;;;;;6.82;4.47;;;2.40;99.90;;;;;;2082506;28;20043;-72
2023/02/04 00:50:16;;;;;;;6.05;4.40;;;2.40;99.90;;;;;;2090540;28;20036;-71
2023/02/04 00:51:17;;;;;;;6.88;4.45;;;2.40;99.90;;;;;;2091691;28;20277;-72
2023/02/04 00:52:18;;;;;;;6.72;4.68;;;2.40;99.90;;;;;;2084053;28;20412;-71
2023/02/04 00:53:18;;;;;;;7.05;4.80;;;2.30;99.90;;;;;;2082406;28;20057;-72
2023/02/04 00:54:19;;;;;;;6.10;4.40;;;2.30;99.90;;;;;;2082389;28;20112;-73
2023/02/04 00:55:20;;;;;;;6.07;4.53;;;2.30;99.90;;;;;;2090627;28;20418;-71
2023/02/04 00:56:20;;;;;;;5.97;4.28;;;2.30;99.90;;;;;;2090610;28;20569;-72
2023/02/04 00:57:21;;;;;;;8.35;4.47;;;2.30;99.90;;;;;;2090840;28;20028;-72
2023/02/04 00:58:22;;;;;;;5.72;4.47;;;2.30;99.90;;;;;;2101724;28;20024;-72
2023/02/04 00:59:22;;;;;;;7.13;4.55;;;2.30;99.90;;;;;;2090576;28;20037;-72
2023/02/04 01:00:23;;;;;;;7.30;4.40;;;2.30;99.90;;;;;;2082412;28;20132;-72
2023/02/04 01:01:23;;;;;;;7.53;4.20;;;2.30;99.90;;;;;;2082477;28;20057;-73
2023/02/04 01:02:24;;;;;;;7.80;4.40;;;2.30;99.90;;;;;;2092781;28;20074;-75
2023/02/04 01:03:25;;;;;;;8.63;4.53;;;2.30;99.90;;;;;;2088146;28;20099;-72
2023/02/04 01:04:27;;;;;;;8.77;4.28;;;2.30;99.90;;;;;;2088036;28;20051;-72
2023/02/04 01:05:27;;;;;;;6.68;4.32;;;2.30;99.90;;;;;;2095243;28;20441;-72
2023/02/04 01:06:28;;;;;;;6.72;4.57;;;2.40;99.90;;;;;;2099077;28;20028;-73
2023/02/04 01:07:29;;;;;;;5.97;4.55;;;2.40;99.90;;;;;;2114342;27;20027;-73
2023/02/04 01:08:30;;;;;;;6.60;4.43;;;2.40;99.90;;;;;;2111785;27;20301;-72
2023/02/04 01:09:30;;;;;;;7.22;4.40;;;2.40;99.90;;;;;;2100852;28;20162;-72
2023/02/04 01:10:31;;;;;;;6.10;4.25;;;2.40;99.90;;;;;;2099043;28;20090;-74
2023/02/04 01:11:32;;;;;;;7.25;4.40;;;2.50;99.90;;;;;;2092510;28;20589;-72
2023/02/04 01:12:33;;;;;;;7.22;4.22;;;2.40;99.90;;;;;;2090833;28;20391;-74
2023/02/04 01:13:33;;;;;;;8.80;4.72;;;2.50;99.90;;;;;;2099095;28;20271;-73
2023/02/04 01:14:34;;;;;;;6.50;4.60;;;2.40;99.90;;;;;;2090338;28;20512;-73
2023/02/04 01:15:35;;;;;;;10.75;5.18;;;2.50;99.90;;;;;;2090869;28;20603;-72
2023/02/04 01:16:35;;;;;;;8.52;4.90;;;2.40;99.90;;;;;;2084398;28;20032;-73
2023/02/04 01:17:36;;;;;;;8.50;4.65;;;2.40;99.90;;;;;;2081944;28;20399;-73
2023/02/04 01:18:37;;;;;;;8.63;4.93;;;2.40;99.90;;;;;;2107489;28;20405;-73
2023/02/04 01:19:37;;;;;;;9.15;5.43;;;2.50;99.90;;;;;;2107424;28;20062;-73
2023/02/04 01:20:38;;;;;;;11.00;5.63;;;2.50;99.90;;;;;;2091819;28;20297;-73
2023/02/04 01:21:38;;;;;;;8.90;5.22;;;2.40;99.90;;;;;;2104544;28;20024;-72
2023/02/04 01:22:39;;;;;;;7.97;5.10;;;2.40;99.90;;;;;;2097253;28;20031;-73
2023/02/04 01:23:40;;;;;;;8.68;5.30;;;2.50;99.90;;;;;;2104085;28;20037;-72
2023/02/04 01:24:41;;;;;;;7.72;5.10;;;2.50;99.90;;;;;;2105245;28;20042;-72
2023/02/04 01:26:00;;;;;;;8.38;4.90;;;2.50;99.90;;;;;;2101465;28;20048;-73
2023/02/04 01:27:01;;;;;;;9.00;5.25;;;2.50;99.90;;;;;;2098651;28;20044;-72
2023/02/04 01:28:02;;;;;;;8.70;5.00;;;2.50;99.90;;;;;;2086794;28;20040;-73
2023/02/04 01:29:05;;;;;;;9.20;5.20;;;2.50;99.90;;;;;;2096870;28;20595;-72
2023/02/04 01:30:06;;;;;;;11.38;5.70;;;2.50;99.90;;;;;;2101976;28;20027;-72
2023/02/04 01:31:07;;;;;;;8.85;5.20;;;2.50;99.90;;;;;;2102048;28;20146;-72
2023/02/04 01:32:08;;;;;;;7.53;5.30;;;2.50;99.90;;;;;;2093642;28;20533;-72
2023/02/04 01:33:08;;;;;;;9.98;5.25;;;2.50;99.90;;;;;;2096661;28;20430;-75
2023/02/04 01:34:09;;;;;;;9.70;5.50;;;2.50;99.90;;;;;;2098666;28;20519;-73
2023/02/04 01:35:10;;;;;;;11.77;5.40;;;2.50;99.90;;;;;;2098752;28;20073;-72
2023/02/04 01:36:10;;;;;;;8.55;5.43;;;2.40;99.90;;;;;;2098748;28;20052;-73
2023/02/04 01:37:11;;;;;;;8.65;5.38;;;2.40;99.90;;;;;;2098756;28;20063;-72
2023/02/04 01:38:12;;;;;;;8.52;5.35;;;2.50;99.90;;;;;;2098467;28;20036;-71
2023/02/04 01:39:12;;;;;;;8.60;5.13;;;2.50;99.90;;;;;;2100717;28;20107;-71
2023/02/04 01:40:13;;;;;;;10.00;5.38;;;2.50;99.90;;;;;;2098563;28;20150;-73
2023/02/04 01:41:15;;;;;;;8.88;5.10;;;2.50;99.90;;;;;;2109111;27;20084;-70
2023/02/04 01:42:15;;;;;;;9.80;5.10;;;2.50;99.90;;;;;;2102163;28;20031;-71
2023/02/04 01:43:17;;;;;;;9.23;5.38;;;2.50;99.90;;;;;;2100577;28;20024;-72
2023/02/04 01:44:17;;;;;;;9.90;5.47;;;2.50;99.90;;;;;;2107929;28;20030;-72
2023/02/04 01:45:18;;;;;;;9.93;5.28;;;2.40;99.90;;;;;;2107005;27;20490;-72
2023/02/04 01:46:19;;;;;;;9.95;5.95;;;2.40;99.90;;;;;;2098581;28;20235;-72
2023/02/04 01:47:21;;;;;;;12.00;5.47;;;2.40;99.90;;;;;;2094884;28;20016;-71
2023/02/04 01:48:22;;;;;;;11.20;5.90;;;2.40;99.90;;;;;;2092200;28;20480;-73
2023/02/04 01:49:23;;;;;;;8.73;5.65;;;2.50;99.90;;;;;;2092442;28;20403;-72
2023/02/04 01:50:23;;;;;;;13.27;5.85;;;2.40;99.90;;;;;;2100622;28;20316;-72
2023/02/04 01:51:27;;;;;;;13.35;5.45;;;2.40;99.90;;;;;;2109263;28;20034;-73
2023/02/04 01:52:33;;;;;;;11.13;5.47;;;2.40;99.90;;;;;;2096057;28;20103;-73
2023/02/04 01:53:34;;;;;;;8.57;5.07;;;2.30;99.90;;;;;;2104243;28;20051;-73
2023/02/04 01:54:35;;;;;;;6.25;5.10;;;2.30;99.90;;;;;;2107951;27;20031;-73
2023/02/04 01:55:36;;;;;;;9.55;5.15;;;2.30;99.90;;;;;;2099175;28;20028;-72
2023/02/04 01:56:36;;;;;;;7.45;5.03;;;2.30;99.90;;;;;;2098719;28;20040;-72
2023/02/04 01:57:37;;;;;;;8.85;5.38;;;2.30;99.90;;;;;;2098634;28;20077;-72
2023/02/04 01:58:37;;;;;;;8.02;5.45;;;2.30;99.90;;;;;;2100490;28;20117;-73
2023/02/04 02:03:31;;;;;;;13.40;5.00;;;2.40;99.90;;;;;;2082117;28;20069;-71
2023/02/04 02:04:32;;;;;;;7.90;5.13;;;2.30;99.90;;;;;;2090632;28;20025;-72
2023/02/04 02:05:39;;;;;;;8.65;5.35;;;2.30;99.90;;;;;;2093201;28;20020;-71
2023/02/04 02:06:46;;;;;;;9.98;5.30;;;2.30;99.90;;;;;;2082123;28;20037;-71
2023/02/04 02:07:48;;;;;;;7.63;5.45;;;2.30;99.90;;;;;;2073309;28;20025;-71
2023/02/04 02:08:48;;;;;;;7.22;5.10;;;2.30;99.90;;;;;;2074382;28;20025;-72
2023/02/04 02:09:49;;;;;;;10.57;5.40;;;2.30;99.90;;;;;;2079692;28;20643;-72
2023/02/04 02:10:49;;;;;;;8.65;5.47;;;2.20;99.90;;;;;;2075321;28;20664;-72
2023/02/04 02:11:50;;;;;;;8.80;5.28;;;2.20;99.90;;;;;;2083537;28;20786;-72
2023/02/04 02:12:53;;;;;;;8.02;5.55;;;2.20;99.90;;;;;;2078816;28;20025;-73
2023/02/04 02:13:54;;;;;;;7.70;5.10;;;2.20;99.90;;;;;;2065632;28;20644;-71
2023/02/04 02:14:54;;;;;;;9.07;5.47;;;2.10;99.90;;;;;;2058274;28;20117;-71
2023/02/04 02:15:55;;;;;;;7.97;5.03;;;2.10;99.90;;;;;;2079359;28;20029;-72
2023/02/04 02:16:56;;;;;;;8.88;5.57;;;2.10;99.90;;;;;;2074280;28;20026;-78
2023/02/04 02:17:56;;;;;;;8.65;5.07;;;2.10;99.90;;;;;;2073776;28;20479;-78
2023/02/04 02:18:58;;;;;;;9.13;5.38;;;2.10;99.90;;;;;;2074172;28;20119;-72
2023/02/04 02:20:00;;;;;;;8.23;5.50;;;2.00;99.90;;;;;;2073748;28;20026;-78
2023/02/04 02:21:07;;;;;;;6.95;5.45;;;2.00;99.90;;;;;;2073839;28;20025;-78
2023/02/04 02:22:31;;;;;;;8.65;6.07;;;2.00;99.90;;;;;;2074377;28;20068;-77
2023/02/04 02:23:50;;;;;;;8.73;5.47;;;2.00;99.90;;;;;;2078484;28;20533;-79
2023/02/04 02:24:52;;;;;;;9.25;5.88;;;2.00;99.90;;;;;;2071217;28;20508;-78
2023/02/04 02:25:52;;;;;;;11.10;5.80;;;2.00;99.90;;;;;;2079505;28;20097;-79
2023/02/04 02:26:54;;;;;;;9.38;6.18;;;1.90;99.90;;;;;;2090882;28;20262;-77
2023/02/04 02:27:59;;;;;;;6.85;5.22;;;1.90;99.90;;;;;;2090749;28;20024;-77
2023/02/04 02:29:00;;;;;;;10.63;6.50;;;1.90;99.90;;;;;;2081961;28;20063;-77
2023/02/04 02:30:00;;;;;;;10.18;6.70;;;1.90;99.90;;;;;;2083808;28;20175;-77
2023/02/04 02:31:01;;;;;;;10.43;6.80;;;1.90;99.90;;;;;;2076838;28;20291;-77
2023/02/04 02:32:01;;;;;;;10.05;6.20;;;1.80;99.90;;;;;;2076815;28;20099;-75
2023/02/04 02:33:03;;;;;;;9.60;6.45;;;1.80;99.90;;;;;;2081856;28;20037;-75
2023/02/04 02:34:03;;;;;;;10.60;6.50;;;1.90;99.90;;;;;;2084043;28;20033;-74
2023/02/04 02:35:05;;;;;;;11.18;6.35;;;1.90;99.90;;;;;;2081745;28;20029;-75
2023/02/04 02:36:06;;;;;;;10.93;6.78;;;1.90;99.90;;;;;;2081810;28;20115;-75
2023/02/04 02:37:10;;;;;;;9.68;6.50;;;1.90;99.90;;;;;;2081598;28;20043;-75
2023/02/04 02:38:11;;;;;;;12.50;6.45;;;1.90;99.90;;;;;;2082215;28;20111;-75
2023/02/04 02:39:11;;;;;;;9.77;6.22;;;1.90;99.90;;;;;;2081525;28;20029;-74
2023/02/04 02:40:13;;;;;;;12.05;6.35;;;1.90;99.90;;;;;;2083474;28;20048;-76
2023/02/04 02:41:13;;;;;;;9.38;6.18;;;1.90;99.90;;;;;;2078944;28;20492;-76
2023/02/04 02:42:17;;;;;;;9.45;6.43;;;1.90;99.90;;;;;;2081517;28;20067;-76
2023/02/04 02:43:23;;;;;;;8.75;5.63;;;1.90;99.90;;;;;;2080069;28;20043;-75
2023/02/04 02:44:25;;;;;;;9.98;6.30;;;1.90;99.90;;;;;;2086161;28;20028;-75
2023/02/04 02:45:29;;;;;;;8.32;5.82;;;1.80;99.90;;;;;;2070744;28;20029;-74
2023/02/04 02:46:29;;;;;;;8.80;6.40;;;1.80;99.90;;;;;;2080295;28;20049;-75
2023/02/04 02:47:30;;;;;;;9.93;5.95;;;1.80;99.90;;;;;;2090764;28;20149;-74
2023/02/04 02:48:31;;;;;;;9.55;6.07;;;1.80;99.90;;;;;;2081469;28;20025;-74
2023/02/04 02:49:32;;;;;;;9.60;5.95;;;1.80;99.90;;;;;;2081610;28;20036;-74
2023/02/04 02:50:33;;;;;;;7.95;5.85;;;1.80;99.90;;;;;;2083609;28;20096;-74
2023/02/04 02:51:35;;;;;;;10.65;6.32;;;1.80;99.90;;;;;;2073503;28;20033;-75
2023/02/04 02:52:36;;;;;;;11.60;6.57;;;1.80;99.90;;;;;;2073187;28;20115;-75
2023/02/04 02:53:37;;;;;;;10.68;6.57;;;1.70;99.90;;;;;;2073099;28;20467;-76
2023/02/04 02:54:39;;;;;;;11.07;6.82;;;1.70;99.90;;;;;;2079790;28;20060;-76
2023/02/04 02:55:41;;;;;;;12.25;6.25;;;1.70;99.90;;;;;;2073482;28;20607;-75
2023/02/04 02:56:41;;;;;;;8.35;5.88;;;1.70;99.90;;;;;;2073582;28;20025;-76
2023/02/04 02:57:45;;;;;;;10.07;5.90;;;1.70;99.90;;;;;;2072983;28;20126;-76
2023/02/04 02:58:46;;;;;;;8.98;6.35;;;1.70;99.90;;;;;;2073669;28;20508;-76
2023/02/04 02:59:46;;;;;;;10.65;6.35;;;1.70;99.90;;;;;;2073268;28;20099;-75
2023/02/04 03:00:47;;;;;;;10.98;6.57;;;1.70;99.90;;;;;;2069895;28;20033;-76
2023/02/04 03:01:52;;;;;;;9.65;6.53;;;1.70;99.90;;;;;;2061934;28;20491;-75
2023/02/04 03:03:07;;;;;;;10.20;7.10;;;1.70;99.90;;;;;;2059060;28;20065;-76
2023/02/04 03:04:09;;;;;;;12.50;7.20;;;1.70;99.90;;;;;;2060526;28;20046;-75
2023/02/04 03:05:11;;;;;;;9.38;6.90;;;1.70;99.90;;;;;;2067020;28;20045;-75
2023/02/04 03:06:15;;;;;;;11.10;7.05;;;1.70;99.90;;;;;;2074783;28;20037;-75
2023/02/04 03:07:18;;;;;;;12.10;7.75;;;1.60;99.90;;;;;;2066510;28;20033;-74
2023/02/04 03:08:19;;;;;;;12.07;8.05;;;1.60;99.90;;;;;;2066989;28;20500;-74
2023/02/04 03:09:20;;;;;;;11.48;7.20;;;1.60;99.90;;;;;;2074398;28;20021;-74
2023/02/04 03:10:21;;;;;;;11.75;7.30;;;1.60;99.90;;;;;;2072612;28;20569;-74
2023/02/04 03:11:22;;;;;;;11.13;7.43;;;1.60;99.90;;;;;;2077186;28;20037;-75
2023/02/04 03:12:23;;;;;;;10.43;7.60;;;1.60;99.90;;;;;;2077053;28;20464;-75
2023/02/04 03:13:24;;;;;;;13.27;8.07;;;1.60;99.90;;;;;;2075067;28;20307;-75
2023/02/04 03:14:26;;;;;;;14.48;8.05;;;1.60;99.90;;;;;;2076830;28;20325;-75
2023/02/04 03:15:27;;;;;;;13.85;8.00;;;1.60;99.90;;;;;;2061860;28;20065;-76
2023/02/04 03:16:31;;;;;;;11.15;7.20;;;1.60;99.90;;;;;;2072451;28;20555;-75
2023/02/04 03:17:33;;;;;;;13.10;7.90;;;1.60;99.90;;;;;;2075102;28;20049;-74
2023/02/04 03:18:34;;;;;;;12.02;8.07;;;1.60;99.90;;;;;;2076412;28;20034;-75
2023/02/04 03:19:37;;;;;;;11.98;7.93;;;1.60;99.90;;;;;;2071492;28;20116;-75
2023/02/04 03:20:39;;;;;;;11.65;7.53;;;1.60;99.90;;;;;;2066819;28;20117;-75
2023/02/04 03:21:40;;;;;;;14.30;7.50;;;1.60;99.90;;;;;;2066700;28;20029;-75
2023/02/04 03:22:41;;;;;;;11.65;7.32;;;1.60;99.90;;;;;;2074948;28;20021;-75
2023/02/04 03:23:42;;;;;;;13.25;7.47;;;1.60;99.90;;;;;;2068273;28;20036;-75
2023/02/04 03:24:42;;;;;;;12.23;7.40;;;1.60;99.90;;;;;;2066599;28;20041;-75
2023/02/04 03:25:44;;;;;;;12.07;7.28;;;1.60;99.90;;;;;;2074728;28;20021;-75
2023/02/04 03:26:44;;;;;;;14.00;7.53;;;1.70;99.90;;;;;;2079568;28;20035;-76
2023/02/04 03:27:46;;;;;;;14.25;7.53;;;1.70;99.90;;;;;;2077685;28;20030;-75
2023/02/04 03:28:46;;;;;;;11.32;7.07;;;1.70;99.90;;;;;;2075469;28;20033;-75
2023/02/04 03:29:47;;;;;;;9.77;6.65;;;1.70;99.90;;;;;;2074815;28;20037;-75
2023/02/04 03:30:52;;;;;;;10.55;6.70;;;1.80;99.90;;;;;;2067832;28;20124;-74
2023/02/04 03:31:54;;;;;;;12.00;6.55;;;1.80;99.90;;;;;;2078052;28;20399;-74
2023/02/04 03:32:54;;;;;;;10.35;6.38;;;1.80;99.90;;;;;;2074814;28;20021;-75
2023/02/04 03:33:55;;;;;;;11.90;7.03;;;1.80;99.90;;;;;;2077348;28;20025;-75
2023/02/04 03:34:55;;;;;;;12.07;7.20;;;1.80;99.90;;;;;;2075515;28;20037;-75
2023/02/04 03:35:57;;;;;;;11.05;7.07;;;1.90;99.90;;;;;;2074641;28;20104;-76
2023/02/04 03:36:57;;;;;;;10.48;6.30;;;1.90;99.90;;;;;;2074433;28;20034;-76
2023/02/04 03:37:58;;;;;;;10.18;6.63;;;1.90;99.90;;;;;;2075224;28;20072;-77
2023/02/04 03:38:59;;;;;;;12.20;6.78;;;2.00;99.90;;;;;;2081302;28;20394;-77
2023/02/04 03:39:59;;;;;;;11.85;6.80;;;2.00;99.90;;;;;;2075002;28;20030;-77
2023/02/04 03:41:00;;;;;;;11.35;7.15;;;2.00;99.90;;;;;;2074001;28;20316;-77
2023/02/04 03:42:01;;;;;;;12.73;6.78;;;2.00;99.90;;;;;;2074595;28;20083;-77
2023/02/04 03:43:01;;;;;;;10.40;6.60;;;1.90;99.90;;;;;;2076731;28;20104;-77
2023/02/04 03:44:02;;;;;;;11.20;6.65;;;1.90;99.90;;;;;;2075300;28;20451;-77
2023/02/04 03:45:03;;;;;;;13.35;7.30;;;1.90;99.90;;;;;;2078061;28;20104;-77
2023/02/04 03:46:04;;;;;;;9.73;6.28;;;1.90;99.90;;;;;;2076711;28;20747;-77
2023/02/04 03:47:05;;;;;;;9.38;6.03;;;1.90;99.90;;;;;;2074811;28;20136;-76
2023/02/04 03:48:05;;;;;;;8.68;6.18;;;1.90;99.90;;;;;;2074170;28;20080;-76
2023/02/04 03:49:06;;;;;;;9.63;6.22;;;1.90;99.90;;;;;;2074615;28;20406;-76
2023/02/04 03:50:07;;;;;;;10.63;6.30;;;1.90;99.90;;;;;;2068287;28;20177;-78
2023/02/04 03:51:07;;;;;;;8.05;5.80;;;1.80;99.90;;;;;;2066366;28;20042;-75
2023/02/04 03:52:08;;;;;;;9.90;6.45;;;1.80;99.90;;;;;;2066237;28;20037;-75
2023/02/04 03:53:08;;;;;;;8.93;6.60;;;1.80;99.90;;;;;;2066315;28;20041;-76
2023/02/04 03:54:09;;;;;;;9.38;6.07;;;1.80;99.90;;;;;;2073173;28;20032;-77
2023/02/04 03:55:09;;;;;;;8.20;6.32;;;1.70;99.90;;;;;;2079308;28;20688;-76
2023/02/04 03:56:10;;;;;;;10.98;6.97;;;1.70;99.90;;;;;;2075914;28;20527;-76
2023/02/04 03:57:11;;;;;;;11.82;6.72;;;1.70;99.90;;;;;;2077725;28;20037;-78
2023/02/04 03:58:12;;;;;;;10.23;6.80;;;1.60;99.90;;;;;;2066388;28;20313;-75
2023/02/04 03:59:12;;;;;;;13.68;7.68;;;1.60;99.90;;;;;;2068460;28;20069;-77
2023/02/04 04:00:13;;;;;;;10.45;7.00;;;1.60;99.90;;;;;;2079830;28;20078;-77
2023/02/04 04:01:14;;;;;;;8.38;5.93;;;1.50;99.90;;;;;;2074953;28;20083;-76
2023/02/04 04:02:14;;;;;;;10.75;7.07;;;1.50;99.90;;;;;;2077358;28;20036;-76
2023/02/04 04:03:15;;;;;;;11.43;6.90;;;1.50;99.90;;;;;;2075420;28;20383;-77
2023/02/04 04:04:16;;;;;;;8.90;6.43;;;1.40;99.90;;;;;;2084092;28;20029;-77
2023/02/04 04:05:16;;;;;;;9.52;6.63;;;1.40;99.90;;;;;;2082445;28;20041;-77
2023/02/04 04:06:17;;;;;;;12.32;7.10;;;1.30;99.90;;;;;;2074451;28;20037;-77
2023/02/04 04:07:17;;;;;;;11.73;7.55;;;1.30;99.90;;;;;;2074565;28;20065;-75
2023/02/04 04:08:18;;;;;;;12.88;7.45;;;1.30;99.90;;;;;;2085408;28;20112;-75
2023/02/04 04:09:18;;;;;;;13.70;7.93;;;1.20;99.90;;;;;;2082484;28;20115;-75
2023/02/04 04:10:19;;;;;;;14.70;7.85;;;1.20;99.90;;;;;;2062514;28;20139;-76
2023/02/04 04:11:20;;;;;;;13.50;7.72;;;1.20;99.90;;;;;;2066394;28;20080;-76
2023/02/04 04:12:21;;;;;;;10.50;7.13;;;1.10;99.90;;;;;;2080475;28;20033;-76
2023/02/04 04:13:21;;;;;;;11.20;6.70;;;1.20;99.90;;;;;;2083022;28;20048;-76
2023/02/04 04:14:22;;;;;;;9.43;6.72;;;1.10;99.90;;;;;;2074895;28;20116;-76
2023/02/04 04:15:24;;;;;;;10.48;7.18;;;1.10;99.90;;;;;;2077970;28;20213;-75
2023/02/04 04:16:24;;;;;;;11.05;7.30;;;1.20;99.90;;;;;;2080166;28;20033;-75
2023/02/04 04:17:25;;;;;;;12.20;7.10;;;1.10;99.90;;;;;;2074332;28;20124;-77
2023/02/04 04:18:25;;;;;;;9.30;6.75;;;1.20;99.90;;;;;;2066932;28;20033;-77
2023/02/04 04:19:26;;;;;;;10.95;7.20;;;1.10;99.90;;;;;;2078904;28;20061;-77
2023/02/04 04:20:27;;;;;;;9.55;6.65;;;1.10;99.90;;;;;;2075651;28;20088;-78
2023/02/04 04:21:28;;;;;;;8.88;7.10;;;1.10;99.90;;;;;;2088830;28;20603;-77
2023/02/04 04:22:29;;;;;;;9.88;6.65;;;1.10;99.90;;;;;;2083012;28;20234;-77
2023/02/04 04:23:29;;;;;;;11.02;7.20;;;1.00;99.90;;;;;;2083643;28;20469;-77
2023/02/04 04:24:30;;;;;;;11.68;7.15;;;1.00;99.90;;;;;;2077928;28;20092;-78
2023/02/04 04:25:30;;;;;;;10.18;6.75;;;1.00;99.90;;;;;;2072504;28;20044;-78
2023/02/04 04:26:31;;;;;;;12.15;7.28;;;1.00;99.90;;;;;;2074211;28;20095;-78
2023/02/04 04:27:31;;;;;;;10.18;6.70;;;1.00;99.90;;;;;;2083231;28;21116;-78
2023/02/04 04:28:32;;;;;;;8.40;6.50;;;1.00;99.90;;;;;;2083254;28;20537;-78
2023/02/04 04:29:32;;;;;;;10.27;6.70;;;1.00;99.90;;;;;;2087999;28;20462;-78
2023/02/04 04:30:33;;;;;;;9.55;6.90;;;1.00;99.90;;;;;;2084475;28;20121;-78
2023/02/04 04:31:33;;;;;;;8.50;6.13;;;1.00;99.90;;;;;;2085438;28;20906;-78
2023/02/04 04:32:34;;;;;;;8.02;5.85;;;1.00;99.90;;;;;;2076473;28;20033;-77
2023/02/04 04:33:34;;;;;;;8.82;5.95;;;1.00;99.90;;;;;;2074448;28;20052;-77
2023/02/04 04:34:35;;;;;;;9.00;5.95;;;1.10;99.90;;;;;;2076168;28;20029;-77
2023/02/04 04:35:36;;;;;;;9.00;5.80;;;1.00;99.90;;;;;;2090512;28;20445;-77
2023/02/04 04:36:36;;;;;;;7.38;5.57;;;1.00;99.90;;;;;;2090996;28;20078;-77
2023/02/04 04:37:37;;;;;;;8.90;6.03;;;1.00;99.90;;;;;;2088463;28;20075;-77
2023/02/04 04:38:37;;;;;;;9.35;5.97;;;1.00;99.90;;;;;;2086149;28;20047;-78
2023/02/04 04:39:38;;;;;;;7.95;5.45;;;1.00;99.90;;;;;;2087961;28;20044;-76
2023/02/04 04:40:39;;;;;;;8.95;5.85;;;1.10;99.90;;;;;;2084474;28;20032;-77
2023/02/04 04:41:39;;;;;;;7.30;5.57;;;1.10;99.90;;;;;;2084754;28;20025;-76
2023/02/04 04:42:40;;;;;;;8.05;5.35;;;1.10;99.90;;;;;;2077996;28;20530;-77
2023/02/04 04:43:40;;;;;;;8.00;5.78;;;1.10;99.90;;;;;;2075939;28;20518;-77
2023/02/04 04:44:41;;;;;;;7.80;5.55;;;1.20;99.90;;;;;;2074248;28;20502;-77
2023/02/04 04:45:41;;;;;;;10.05;6.60;;;1.20;99.90;;;;;;2087299;28;20420;-77
2023/02/04 04:46:42;;;;;;;8.13;6.13;;;1.20;99.90;;;;;;2082268;28;20129;-77
2023/02/04 04:47:42;;;;;;;8.57;6.40;;;1.20;99.90;;;;;;2082498;28;20025;-76
2023/02/04 04:48:43;;;;;;;9.10;6.50;;;1.30;99.90;;;;;;2088899;28;20032;-76
2023/02/04 04:49:43;;;;;;;10.25;6.35;;;1.30;99.90;;;;;;2085111;28;20085;-76
2023/02/04 04:50:44;;;;;;;11.18;6.80;;;1.30;99.90;;;;;;2084920;28;20130;-76
2023/02/04 04:51:44;;;;;;;9.05;6.30;;;1.30;99.90;;;;;;2083195;28;20304;-76
2023/02/04 04:52:45;;;;;;;9.70;6.55;;;1.40;99.90;;;;;;2091903;28;20538;-75
2023/02/04 04:53:46;;;;;;;10.18;6.60;;;1.40;99.90;;;;;;2088863;28;20073;-75
2023/02/04 04:54:46;;;;;;;9.65;6.35;;;1.40;99.90;;;;;;2083037;28;20032;-76
2023/02/04 04:55:47;;;;;;;11.75;6.57;;;1.40;99.90;;;;;;2086484;28;20060;-75
2023/02/04 04:56:47;;;;;;;8.98;5.82;;;1.50;99.90;;;;;;2081794;28;20036;-75
2023/02/04 04:57:48;;;;;;;10.32;6.35;;;1.50;99.90;;;;;;2084296;28;20033;-76
2023/02/04 04:58:48;;;;;;;14.30;7.72;;;1.60;99.90;;;;;;2083705;28;20080;-75
2023/02/04 04:59:49;;;;;;;14.57;7.90;;;1.60;99.90;;;;;;2082724;28;20036;-76
2023/02/04 05:00:49;;;;;;;14.00;8.07;;;1.60;99.90;;;;;;2082861;28;20021;-75
2023/02/04 05:01:50;;;;;;;14.38;8.40;;;1.50;99.90;;;;;;2089574;28;20025;-76
2023/02/04 05:02:51;;;;;;;16.65;8.63;;;1.50;99.90;;;;;;2083016;28;20067;-76
2023/02/04 05:03:51;;;;;;;14.63;8.50;;;1.50;99.90;;;;;;2081925;28;20380;-76
2023/02/04 05:04:52;;;;;;;14.23;8.40;;;1.50;99.90;;;;;;2082105;28;20448;-76
2023/02/04 05:05:52;;;;;;;15.18;8.98;;;1.50;99.90;;;;;;2092349;28;20537;-76
2023/02/04 05:06:53;;;;;;;13.48;8.30;;;1.50;99.90;;;;;;2090326;28;20098;-76
2023/02/04 05:07:53;;;;;;;11.98;8.10;;;1.50;99.90;;;;;;2082641;28;20944;-76
2023/02/04 05:08:54;;;;;;;12.43;7.82;;;1.50;99.90;;;;;;2082439;28;20459;-76
2023/02/04 05:09:54;;;;;;;14.63;8.35;;;1.50;99.90;;;;;;2082154;28;20025;-75
2023/02/04 05:10:55;;;;;;;13.68;7.45;;;1.50;99.90;;;;;;2080357;28;20021;-76
2023/02/04 05:11:56;;;;;;;12.57;7.85;;;1.40;99.90;;;;;;2082719;28;20031;-77
2023/02/04 05:12:56;;;;;;;12.23;7.38;;;1.50;99.90;;;;;;2082928;28;20184;-76
2023/02/04 05:13:57;;;;;;;12.05;7.68;;;1.50;99.90;;;;;;2086224;28;20091;-76
2023/02/04 05:14:57;;;;;;;11.02;7.45;;;1.40;99.90;;;;;;2088002;28;20060;-76
2023/02/04 05:15:58;;;;;;;11.52;7.30;;;1.40;99.90;;;;;;2082289;28;20037;-76
2023/02/04 05:16:58;;;;;;;12.13;7.32;;;1.40;99.90;;;;;;2082166;28;20039;-76
2023/02/04 05:17:59;;;;;;;11.48;7.15;;;1.40;99.90;;;;;;2081589;28;20037;-76
2023/02/04 05:18:59;;;;;;;16.73;8.00;;;1.30;99.90;;;;;;2083955;28;20067;-76
2023/02/04 05:20:00;;;;;;;13.27;7.63;;;1.30;99.90;;;;;;2082318;28;20041;-76
2023/02/04 05:21:00;;;;;;;13.93;7.88;;;1.30;99.90;;;;;;2082622;28;20185;-77
2023/02/04 05:22:01;;;;;;;12.88;7.35;;;1.20;99.90;;;;;;2082746;28;20111;-76
2023/02/04 05:23:02;;;;;;;13.30;7.80;;;1.20;99.90;;;;;;2082144;28;20029;-76
2023/02/04 05:24:05;;;;;;;12.18;6.90;;;1.20;99.90;;;;;;2092160;28;20058;-77
2023/02/04 05:25:05;;;;;;;13.27;7.60;;;1.20;99.90;;;;;;2090470;28;20048;-74